createdAt,value
2022-08-17T00:01:52.431Z,14.4
2022-08-17T00:04:16.868Z,14.3
2022-08-17T00:06:49.581Z,14.3
2022-08-17T00:09:20.292Z,14.2
2022-08-17T00:12:04.033Z,14.1
2022-08-17T00:14:33.527Z,14.0
2022-08-17T00:17:04.169Z,14.0
2022-08-17T00:19:34.810Z,14.0
2022-08-17T00:22:33.334Z,14.0
2022-08-17T00:24:36.298Z,14.0
2022-08-17T00:27:16.921Z,13.9
2022-08-17T00:29:47.533Z,13.9
2022-08-17T00:34:48.284Z,13.6
2022-08-17T00:37:18.880Z,13.6
2022-08-17T00:39:49.535Z,13.5
2022-08-17T00:42:31.197Z,13.4
2022-08-17T00:45:02.246Z,13.3
2022-08-17T00:47:32.902Z,13.2
2022-08-17T00:50:03.500Z,13.2
2022-08-17T00:52:34.104Z,13.2
2022-08-17T00:55:04.705Z,13.1
2022-08-17T00:57:45.310Z,13.2
2022-08-17T01:02:46.430Z,13.2
2022-08-17T01:05:17.236Z,13.2
2022-08-17T01:07:42.831Z,13.1
2022-08-17T01:10:57.889Z,13.0
2022-08-17T01:15:31.906Z,12.9
2022-08-17T01:17:56.600Z,12.8
2022-08-17T01:20:29.056Z,12.8
2022-08-17T01:22:58.421Z,12.7
2022-08-17T01:25:41.403Z,12.6
2022-08-17T01:28:11.966Z,12.6
2022-08-17T01:30:56.599Z,12.6
2022-08-17T01:33:18.945Z,12.5
2022-08-17T01:35:49.549Z,12.5
2022-08-17T01:38:26.508Z,12.5
2022-08-17T01:40:57.922Z,12.6
2022-08-17T01:43:28.552Z,12.8
2022-08-17T01:46:02.613Z,13.0
2022-08-17T01:48:34.404Z,13.1
2022-08-17T01:51:05.018Z,13.2
2022-08-17T01:56:15.782Z,13.3
2022-08-17T01:58:46.379Z,13.3
2022-08-17T02:01:17.078Z,13.2
2022-08-17T02:03:53.290Z,13.1
2022-08-17T02:06:26.977Z,13.0
2022-08-17T02:09:02.032Z,12.9
2022-08-17T02:11:30.152Z,12.8
2022-08-17T02:14:02.507Z,12.8
2022-08-17T02:16:24.167Z,12.8
2022-08-17T02:18:57.756Z,12.8
2022-08-17T02:21:28.396Z,12.8
2022-08-17T02:24:09.007Z,12.8
2022-08-17T02:26:39.726Z,12.8
2022-08-17T02:29:10.390Z,12.8
2022-08-17T02:31:40.997Z,12.7
2022-08-17T02:36:41.722Z,12.5
2022-08-17T02:39:22.350Z,12.5
2022-08-17T02:41:53.061Z,12.6
2022-08-17T02:44:35.317Z,12.6
2022-08-17T02:47:00.046Z,12.5
2022-08-17T02:49:30.651Z,12.4
2022-08-17T02:52:08.006Z,12.4
2022-08-17T02:54:43.005Z,12.4
2022-08-17T02:57:13.597Z,12.4
2022-08-17T02:59:48.434Z,12.4
2022-08-17T03:02:09.500Z,12.4
2022-08-17T03:04:40.450Z,12.5
2022-08-17T03:07:21.072Z,12.4
2022-08-17T03:09:51.691Z,12.4
2022-08-17T03:12:22.280Z,12.4
2022-08-17T03:17:23.060Z,12.4
2022-08-17T03:19:53.682Z,12.4
2022-08-17T03:22:35.728Z,12.4
2022-08-17T03:25:10.562Z,12.3
2022-08-17T03:27:44.690Z,12.2
2022-08-17T03:30:10.856Z,12.2
2022-08-17T03:32:41.792Z,12.1
2022-08-17T03:35:12.790Z,12.1
2022-08-17T03:37:57.015Z,12.0
2022-08-17T03:40:34.284Z,12.0
2022-08-17T03:42:56.028Z,11.9
2022-08-17T03:45:26.636Z,11.9
2022-08-17T03:47:53.728Z,11.9
2022-08-17T03:50:24.342Z,11.9
2022-08-17T03:53:04.976Z,11.9
2022-08-17T03:58:05.735Z,11.6
2022-08-17T04:00:36.322Z,11.6
2022-08-17T04:03:10.325Z,11.5
2022-08-17T04:05:50.931Z,11.4
2022-08-17T04:08:21.575Z,11.4
2022-08-17T04:10:52.168Z,11.4
2022-08-17T04:13:24.126Z,11.4
2022-08-17T04:15:56.166Z,11.4
2022-08-17T04:18:26.779Z,11.4
2022-08-17T04:21:07.388Z,11.4
2022-08-17T04:23:38.003Z,11.4
2022-08-17T04:26:08.612Z,11.4
2022-08-17T04:28:34.770Z,11.5
2022-08-17T04:31:05.392Z,11.5
2022-08-17T04:33:37.400Z,11.7
2022-08-17T04:38:48.153Z,11.9
2022-08-17T04:41:18.872Z,11.9
2022-08-17T04:43:53.614Z,12.0
2022-08-17T04:46:27.281Z,12.0
2022-08-17T04:48:57.885Z,12.0
2022-08-17T04:51:38.495Z,12.0
2022-08-17T04:54:09.751Z,11.7
2022-08-17T04:56:40.355Z,11.6
2022-08-17T05:01:41.107Z,11.8
2022-08-17T05:04:34.737Z,11.8
2022-08-17T05:06:47.306Z,11.9
2022-08-17T05:09:17.934Z,12.0
2022-08-17T05:11:48.533Z,12.1
2022-08-17T05:14:19.147Z,12.4
2022-08-17T05:19:34.383Z,13.2
2022-08-17T05:22:09.214Z,13.7
2022-08-17T05:24:43.408Z,14.2
2022-08-17T05:27:06.451Z,14.6
2022-08-17T05:29:36.004Z,15.1
2022-08-17T05:32:37.490Z,15.6
2022-08-17T05:34:50.109Z,16.2
2022-08-17T05:37:21.032Z,16.8
2022-08-17T05:39:51.696Z,16.5
2022-08-17T05:42:22.477Z,16.6
2022-08-17T05:44:53.129Z,16.3
2022-08-17T05:47:23.705Z,16.6
2022-08-17T05:50:09.717Z,17.0
2022-08-17T05:52:37.568Z,17.3
2022-08-17T05:55:08.182Z,17.4
2022-08-17T06:00:09.986Z,18.1
2022-08-17T06:02:51.871Z,18.4
2022-08-17T06:05:12.613Z,18.8
2022-08-17T06:07:43.230Z,19.5
2022-08-17T06:10:14.357Z,20.0
2022-08-17T06:12:44.954Z,20.6
2022-08-17T06:15:15.556Z,20.4
2022-08-17T06:18:06.178Z,20.6
2022-08-17T06:20:29.564Z,20.7
2022-08-17T06:23:00.171Z,21.1
2022-08-17T06:25:30.784Z,21.4
2022-08-17T06:28:01.404Z,22.0
2022-08-17T06:30:57.700Z,22.4
2022-08-17T06:33:11.269Z,22.4
2022-08-17T06:35:41.900Z,22.4
2022-08-17T06:40:50.117Z,23.1
2022-08-17T06:43:20.711Z,23.3
2022-08-17T06:45:54.323Z,23.6
2022-08-17T06:48:34.939Z,23.6
2022-08-17T06:51:05.560Z,23.8
2022-08-17T06:53:36.428Z,23.9
2022-08-17T06:55:58.118Z,24.0
2022-08-17T06:58:28.908Z,24.2
2022-08-17T07:01:10.902Z,24.4
2022-08-17T07:03:41.774Z,24.3
2022-08-17T07:06:11.947Z,24.6
2022-08-17T07:08:48.200Z,24.4
2022-08-17T07:11:20.488Z,24.6
2022-08-17T07:13:51.803Z,24.9
2022-08-17T07:21:27.768Z,25.2
2022-08-17T07:23:58.403Z,25.3
2022-08-17T07:26:29.894Z,25.6
2022-08-17T07:29:01.499Z,25.6
2022-08-17T07:31:42.140Z,25.8
2022-08-17T07:34:12.735Z,25.3
2022-08-17T07:36:43.325Z,25.3
2022-08-17T07:39:13.928Z,25.4
2022-08-17T07:41:53.661Z,25.9
2022-08-17T07:44:29.769Z,26.0
2022-08-17T07:47:00.348Z,26.2
2022-08-17T07:49:30.974Z,26.3
2022-08-17T07:52:24.843Z,26.2
2022-08-17T07:54:30.791Z,26.0
2022-08-17T07:57:01.406Z,25.9
2022-08-17T08:02:16.357Z,26.0
2022-08-17T08:04:59.485Z,26.0
2022-08-17T08:07:09.676Z,25.9
2022-08-17T08:09:40.301Z,25.8
2022-08-17T08:12:10.889Z,25.8
2022-08-17T08:14:53.901Z,25.8
2022-08-17T08:17:24.522Z,25.9
2022-08-17T08:19:55.122Z,25.9
2022-08-17T08:22:31.379Z,26.0
2022-08-17T08:25:02.006Z,26.1
2022-08-17T08:27:32.583Z,26.2
2022-08-17T08:30:13.328Z,26.3
2022-08-17T08:32:43.938Z,26.4
2022-08-17T08:35:07.661Z,26.5
2022-08-17T08:37:42.604Z,26.6
2022-08-17T08:42:59.225Z,26.6
2022-08-17T08:45:29.833Z,26.7
2022-08-17T08:48:05.239Z,26.8
2022-08-17T08:50:30.401Z,26.7
2022-08-17T08:52:58.913Z,26.7
2022-08-17T08:55:29.546Z,26.8
2022-08-17T08:58:30.787Z,26.8
2022-08-17T09:00:41.989Z,26.9
2022-08-17T09:03:12.690Z,26.9
2022-08-17T09:05:43.288Z,27.0
2022-08-17T09:08:13.905Z,27.0
2022-08-17T09:10:44.532Z,27.1
2022-08-17T09:13:25.126Z,27.1
2022-08-17T09:15:54.616Z,27.0
2022-08-17T09:19:02.081Z,27.1
2022-08-17T09:23:24.681Z,27.2
2022-08-17T09:25:55.247Z,27.3
2022-08-17T09:28:35.866Z,27.4
2022-08-17T09:31:06.485Z,27.4
2022-08-17T09:33:43.447Z,27.2
2022-08-17T09:36:14.045Z,27.7
2022-08-17T09:38:44.654Z,28.0
2022-08-17T09:41:25.247Z,28.0
2022-08-17T09:43:49.508Z,28.1
2022-08-17T09:46:23.870Z,28.1
2022-08-17T09:48:49.222Z,28.1
2022-08-17T09:51:29.819Z,28.0
2022-08-17T09:54:15.065Z,28.1
2022-08-17T09:56:35.423Z,27.8
2022-08-17T09:59:08.304Z,27.9
2022-08-17T10:04:09.044Z,27.9
2022-08-17T10:06:40.933Z,27.8
2022-08-17T10:09:12.116Z,28.1
2022-08-17T10:11:52.890Z,28.4
2022-08-17T10:14:36.145Z,28.3
2022-08-17T10:16:49.798Z,28.1
2022-08-17T10:19:20.418Z,28.1
2022-08-17T10:22:00.728Z,28.3
2022-08-17T10:24:25.850Z,28.3
2022-08-17T10:27:01.994Z,28.2
2022-08-17T10:29:34.176Z,28.2
2022-08-17T10:32:09.842Z,28.4
2022-08-17T10:34:41.365Z,28.4
2022-08-17T10:37:12.165Z,28.4
2022-08-17T10:39:53.138Z,28.4
2022-08-17T10:44:54.178Z,28.5
2022-08-17T10:47:24.770Z,28.6
2022-08-17T10:49:56.666Z,28.7
2022-08-17T10:52:27.270Z,28.6
2022-08-17T10:55:07.906Z,28.7
2022-08-17T10:57:38.520Z,28.6
2022-08-17T11:00:09.143Z,29.2
2022-08-17T11:02:33.555Z,29.0
2022-08-17T11:05:04.516Z,29.1
2022-08-17T11:07:35.119Z,29.0
2022-08-17T11:10:15.740Z,29.3
2022-08-17T11:12:46.315Z,29.4
2022-08-17T11:15:16.927Z,29.4
2022-08-17T11:17:51.199Z,29.6
2022-08-17T11:20:21.843Z,29.9
2022-08-17T11:25:32.620Z,30.0
2022-08-17T11:28:03.215Z,30.3
2022-08-17T11:30:33.857Z,30.3
2022-08-17T11:33:04.886Z,30.2
2022-08-17T11:35:32.055Z,30.4
2022-08-17T11:38:15.875Z,30.0
2022-08-17T11:40:48.938Z,29.5
2022-08-17T11:43:19.578Z,29.8
2022-08-17T11:45:49.992Z,29.9
2022-08-17T11:48:28.089Z,30.3
2022-08-17T11:50:49.182Z,30.6
2022-08-17T11:53:29.785Z,31.0
2022-08-17T11:56:00.393Z,31.2
2022-08-17T11:58:31.090Z,31.3
2022-08-17T12:01:01.679Z,31.1
2022-08-17T12:06:06.729Z,31.0
2022-08-17T12:08:41.135Z,31.1
2022-08-17T12:11:15.638Z,30.9
2022-08-17T12:13:43.619Z,30.5
2022-08-17T12:16:14.203Z,30.1
2022-08-17T12:18:44.823Z,30.3
2022-08-17T12:21:25.457Z,30.7
2022-08-17T12:23:56.079Z,31.0
2022-08-17T12:26:26.674Z,31.1
2022-08-17T12:28:57.403Z,31.4
2022-08-17T12:31:29.159Z,31.6
2022-08-17T12:33:59.825Z,31.5
2022-08-17T12:36:40.448Z,31.5
2022-08-17T12:39:13.120Z,32.0
2022-08-17T12:41:47.112Z,32.1
2022-08-17T12:46:44.116Z,31.4
2022-08-17T12:49:14.742Z,31.2
2022-08-17T12:51:55.338Z,30.9
2022-08-17T12:54:25.968Z,30.7
2022-08-17T12:56:56.576Z,30.9
2022-08-17T12:59:29.684Z,31.0
2022-08-17T13:02:01.348Z,31.0
2022-08-17T13:04:32.019Z,31.0
2022-08-17T13:07:12.636Z,31.1
2022-08-17T13:09:43.252Z,31.2
2022-08-17T13:12:13.851Z,31.0
2022-08-17T13:14:44.453Z,31.4
2022-08-17T13:17:15.020Z,32.4
2022-08-17T13:19:55.665Z,32.5
2022-08-17T13:22:26.291Z,32.7
2022-08-17T13:27:27.023Z,32.1
2022-08-17T13:29:57.637Z,32.2
2022-08-17T13:32:28.256Z,32.1
2022-08-17T13:35:28.476Z,32.0
2022-08-17T13:37:42.653Z,31.2
2022-08-17T13:40:13.437Z,31.8
2022-08-17T13:42:50.256Z,31.9
2022-08-17T13:45:32.296Z,31.7
2022-08-17T13:47:41.374Z,32.2
2022-08-17T13:50:22.271Z,31.9
2022-08-17T13:52:52.876Z,31.7
2022-08-17T13:55:23.518Z,32.2
2022-08-17T13:58:00.916Z,32.3
2022-08-17T14:00:27.614Z,32.3
2022-08-17T14:03:08.210Z,32.8
2022-08-17T14:08:08.980Z,33.2
2022-08-17T14:13:09.735Z,33.0
2022-08-17T14:15:55.514Z,33.4
2022-08-17T14:18:30.541Z,33.5
2022-08-17T14:20:56.156Z,33.0
2022-08-17T14:23:26.785Z,32.6
2022-08-17T14:25:55.045Z,32.2
2022-08-17T14:28:25.663Z,31.5
2022-08-17T14:30:55.480Z,31.4
2022-08-17T14:33:36.123Z,31.1
2022-08-17T14:36:06.753Z,30.8
2022-08-17T14:38:37.344Z,30.8
2022-08-17T14:41:07.939Z,31.0
2022-08-17T14:43:42.872Z,30.9
2022-08-17T14:48:57.047Z,31.6
2022-08-17T14:51:28.719Z,32.2
2022-08-17T14:53:54.323Z,32.3
2022-08-17T14:56:24.268Z,32.3
2022-08-17T14:58:57.270Z,32.6
2022-08-17T15:01:37.895Z,32.9
2022-08-17T15:04:08.629Z,32.7
2022-08-17T15:06:39.255Z,32.5
2022-08-17T15:09:09.868Z,32.7
2022-08-17T15:11:35.983Z,33.0
2022-08-17T15:14:06.590Z,32.9
2022-08-17T15:16:47.191Z,32.4
2022-08-17T15:19:17.825Z,32.1
2022-08-17T15:21:48.405Z,31.4
2022-08-17T15:24:29.009Z,31.4
2022-08-17T15:29:29.755Z,30.9
2022-08-17T15:32:10.392Z,30.8
2022-08-17T15:34:41.001Z,30.7
2022-08-17T15:37:11.616Z,30.4
2022-08-17T15:39:42.263Z,30.4
2022-08-17T15:42:13.040Z,30.4
2022-08-17T15:44:53.679Z,30.3
2022-08-17T15:47:24.278Z,30.2
2022-08-17T15:49:59.541Z,30.1
2022-08-17T15:52:20.598Z,30.0
2022-08-17T15:54:51.199Z,29.9
2022-08-17T15:57:21.812Z,30.0
2022-08-17T16:00:02.427Z,29.9
2022-08-17T16:03:15.462Z,29.9
2022-08-17T16:05:03.425Z,29.8
2022-08-17T16:10:08.080Z,29.9
2022-08-17T16:12:35.885Z,29.8
2022-08-17T16:15:16.667Z,29.9
2022-08-17T16:17:47.277Z,29.9
2022-08-17T16:20:19.489Z,29.9
2022-08-17T16:22:51.190Z,29.9
2022-08-17T16:25:22.059Z,29.8
2022-08-17T16:27:53.558Z,29.7
2022-08-17T16:30:34.350Z,29.8
2022-08-17T16:33:04.962Z,29.8
2022-08-17T16:35:35.594Z,29.9
2022-08-17T16:38:07.066Z,29.8
2022-08-17T16:40:37.974Z,29.8
2022-08-17T16:43:08.522Z,30.0
2022-08-17T16:45:52.063Z,30.0
2022-08-17T16:50:58.559Z,29.8
2022-08-17T16:53:23.992Z,29.8
2022-08-17T16:55:56.841Z,29.6
2022-08-17T16:58:27.452Z,29.6
2022-08-17T17:01:01.224Z,29.4
2022-08-17T17:03:32.097Z,29.4
2022-08-17T17:06:07.956Z,29.4
2022-08-17T17:08:43.705Z,29.2
2022-08-17T17:11:04.817Z,29.2
2022-08-17T17:13:49.759Z,29.1
2022-08-17T17:16:20.352Z,29.0
2022-08-17T17:18:45.076Z,29.0
2022-08-17T17:21:15.686Z,28.9
2022-08-17T17:23:46.245Z,28.8
2022-08-17T17:26:16.896Z,28.8
2022-08-17T17:31:37.656Z,28.6
2022-08-17T17:34:08.455Z,28.5
2022-08-17T17:36:39.049Z,28.4
2022-08-17T17:39:09.657Z,28.4
2022-08-17T17:41:40.235Z,28.2
2022-08-17T17:44:20.852Z,28.1
2022-08-17T17:46:51.440Z,28.0
2022-08-17T17:49:22.087Z,27.9
2022-08-17T17:51:58.025Z,27.8
2022-08-17T17:54:20.208Z,27.8
2022-08-17T17:57:00.808Z,27.7
2022-08-17T17:59:31.425Z,27.5
2022-08-17T18:02:04.714Z,27.4
2022-08-17T18:04:35.448Z,27.3
2022-08-17T18:07:06.050Z,27.1
2022-08-17T18:12:10.799Z,26.8
2022-08-17T18:14:42.143Z,26.7
2022-08-17T18:17:12.776Z,26.6
2022-08-17T18:19:43.391Z,26.4
2022-08-17T18:22:14.626Z,26.3
2022-08-17T18:24:45.328Z,26.2
2022-08-17T18:27:25.952Z,26.1
2022-08-17T18:29:56.685Z,26.0
2022-08-17T18:32:29.822Z,25.9
2022-08-17T18:35:00.463Z,25.8
2022-08-17T18:37:31.046Z,25.7
2022-08-17T18:40:02.086Z,25.7
2022-08-17T18:42:42.807Z,25.5
2022-08-17T18:45:13.422Z,25.5
2022-08-17T18:47:44.034Z,25.4
2022-08-17T18:52:45.035Z,25.2
2022-08-17T18:55:27.643Z,25.1
2022-08-17T18:57:59.188Z,25.0
2022-08-17T19:00:29.791Z,24.9
2022-08-17T19:03:00.464Z,24.8
2022-08-17T19:05:32.775Z,24.7
2022-08-17T19:08:03.408Z,24.6
2022-08-17T19:10:46.047Z,24.6
2022-08-17T19:13:23.296Z,24.5
2022-08-17T19:15:45.800Z,24.4
2022-08-17T19:18:15.441Z,24.4
2022-08-17T19:20:46.294Z,24.4
2022-08-17T19:23:18.139Z,24.4
2022-08-17T19:25:53.846Z,24.3
2022-08-17T19:28:23.529Z,24.2
2022-08-17T19:33:28.977Z,24.0
2022-08-17T19:35:59.577Z,24.0
2022-08-17T19:38:30.166Z,24.0
2022-08-17T19:41:10.811Z,24.0
2022-08-17T19:43:41.430Z,24.0
2022-08-17T19:46:12.053Z,23.9
2022-08-17T19:48:46.104Z,23.8
2022-08-17T19:51:16.699Z,23.8
2022-08-17T19:54:05.689Z,23.8
2022-08-17T19:56:26.828Z,23.8
2022-08-17T19:58:57.452Z,23.8
2022-08-17T20:01:32.561Z,23.8
2022-08-17T20:03:55.245Z,23.7
2022-08-17T20:06:25.778Z,23.7
2022-08-17T20:09:07.251Z,23.6
2022-08-17T20:14:13.875Z,23.6
2022-08-17T20:16:44.464Z,23.6
2022-08-17T20:19:09.750Z,23.5
2022-08-17T20:21:40.409Z,23.5
2022-08-17T20:24:21.046Z,23.5
2022-08-17T20:26:55.579Z,23.5
2022-08-17T20:29:37.917Z,23.5
2022-08-17T20:32:00.981Z,23.4
2022-08-17T20:34:34.910Z,23.3
2022-08-17T20:36:57.902Z,23.2
2022-08-17T20:39:39.425Z,23.2
2022-08-17T20:42:10.281Z,23.2
2022-08-17T20:44:40.887Z,23.2
2022-08-17T20:47:11.494Z,23.1
2022-08-17T20:49:37.331Z,23.2
2022-08-17T20:54:58.089Z,23.3
2022-08-17T20:57:28.771Z,23.3
2022-08-17T20:59:59.490Z,23.2
2022-08-17T21:02:30.085Z,23.2
2022-08-17T21:05:00.723Z,23.2
2022-08-17T21:07:43.264Z,23.2
2022-08-17T21:10:04.527Z,23.2
2022-08-17T21:12:40.048Z,23.2
2022-08-17T21:15:10.642Z,23.2
2022-08-17T21:17:41.250Z,23.2
2022-08-17T21:20:12.780Z,23.2
2022-08-17T21:22:53.472Z,23.3
2022-08-17T21:25:24.085Z,23.4
2022-08-17T21:27:55.329Z,23.4
2022-08-17T21:30:28.094Z,23.4
2022-08-17T21:35:21.824Z,23.4
2022-08-17T21:38:09.261Z,23.4
2022-08-17T21:40:39.886Z,23.1
2022-08-17T21:43:10.537Z,22.9
2022-08-17T21:45:41.148Z,22.7
2022-08-17T21:48:11.767Z,22.5
2022-08-17T21:50:52.446Z,22.3
2022-08-17T21:53:23.046Z,22.2
2022-08-17T21:55:53.850Z,22.2
2022-08-17T21:58:24.448Z,22.2
2022-08-17T22:00:48.890Z,22.2
2022-08-17T22:03:19.695Z,22.2
2022-08-17T22:06:00.309Z,22.2
2022-08-17T22:08:30.939Z,22.2
2022-08-17T22:11:01.565Z,22.2
2022-08-17T22:16:15.794Z,22.2
2022-08-17T22:18:39.584Z,22.2
2022-08-17T22:21:25.100Z,22.1
2022-08-17T22:23:45.992Z,22.1
2022-08-17T22:26:16.623Z,22.0
2022-08-17T22:28:47.239Z,22.0
2022-08-17T22:31:17.852Z,22.0
2022-08-17T22:33:48.484Z,22.0
2022-08-17T22:36:29.488Z,22.0
2022-08-17T22:41:40.317Z,22.0
2022-08-17T22:44:10.918Z,22.1
2022-08-17T22:46:41.516Z,22.0
2022-08-17T22:49:22.149Z,22.0
2022-08-17T22:51:43.853Z,22.0
2022-08-17T22:56:54.618Z,22.0
2022-08-17T22:59:19.042Z,22.1
2022-08-17T23:01:49.641Z,22.1
2022-08-17T23:04:30.261Z,22.0
2022-08-17T23:07:00.865Z,21.9
2022-08-17T23:09:31.484Z,21.7
2022-08-17T23:12:02.108Z,21.6
2022-08-17T23:14:32.716Z,21.6
2022-08-17T23:17:03.311Z,21.4
2022-08-17T23:19:43.924Z,21.4
2022-08-17T23:22:14.529Z,21.4
2022-08-17T23:24:45.134Z,21.4
2022-08-17T23:27:15.694Z,21.4
2022-08-17T23:29:46.302Z,21.3
2022-08-17T23:32:16.922Z,21.2
2022-08-17T23:37:33.596Z,20.6
2022-08-17T23:40:04.228Z,20.1
2022-08-17T23:42:34.954Z,19.7
2022-08-17T23:45:08.896Z,19.2
2022-08-17T23:47:49.670Z,18.6
2022-08-17T23:50:20.444Z,18.1
2022-08-17T23:52:51.570Z,17.7
2022-08-17T23:55:22.172Z,17.4
2022-08-17T23:57:52.977Z,17.0
